Time;durP1;ratioP1;P1;durP2;ratioP2;P2;SDS_P1;SDS_P2;PMS_P1;PMS_P2;Temp;Humidity;BMP_temperature;BMP_pressure;BME280_temperature;BME280_humidity;BME280_pressure;Samples;Min_cycle;Max_cycle;Signal;HPM_P1;HPM_P2
2021/12/19 00:00:41;;;;;;;5.57;2.90;;;;;;;7.24;100.00;102210.69;5037587;28;20311;-57
2021/12/19 00:03:31;;;;;;;4.43;2.63;;;;;;;7.30;100.00;102206.56;5036352;28;20736;-58
2021/12/19 00:08:50;;;;;;;8.43;3.10;;;;;;;7.32;100.00;102201.41;4974013;28;20253;-58
2021/12/19 00:11:18;;;;;;;10.80;2.77;;;;;;;7.33;100.00;102196.22;5018022;28;20235;-61
2021/12/19 00:13:44;;;;;;;10.90;4.10;;;;;;;7.31;100.00;102189.19;5038058;28;20301;-57
2021/12/19 00:16:12;;;;;;;8.77;2.97;;;;;;;7.32;100.00;102177.88;5036338;28;20256;-58
2021/12/19 00:18:39;;;;;;;8.40;2.90;;;;;;;7.32;100.00;102165.69;5037734;28;20731;-59
2021/12/19 00:21:06;;;;;;;7.27;2.47;;;;;;;7.35;100.00;102172.75;5037506;28;20243;-57
2021/12/19 00:23:32;;;;;;;9.47;3.07;;;;;;;7.39;100.00;102169.41;5038699;28;20307;-57
2021/12/19 00:25:59;;;;;;;8.93;3.07;;;;;;;7.27;100.00;102164.66;5034151;22;20321;-53
2021/12/19 00:28:26;;;;;;;3.57;2.50;;;;;;;7.26;100.00;102167.19;4999913;28;20319;-53
2021/12/19 00:30:52;;;;;;;5.90;2.60;;;;;;;7.34;100.00;102161.44;5000046;28;20537;-53
2021/12/19 00:33:20;;;;;;;7.83;4.00;;;;;;;7.30;100.00;102170.00;5003812;28;20303;-53
2021/12/19 00:35:46;;;;;;;7.40;3.23;;;;;;;7.42;100.00;102153.84;5003847;28;20312;-53
2021/12/19 00:38:12;;;;;;;6.00;2.67;;;;;;;7.33;100.00;102158.75;4985860;28;20726;-52
2021/12/19 00:40:39;;;;;;;6.50;3.50;;;;;;;7.35;100.00;102152.75;4983868;28;20260;-52
2021/12/19 00:43:09;;;;;;;7.83;3.20;;;;;;;7.29;100.00;102149.03;4983757;28;20798;-52
2021/12/19 00:45:37;;;;;;;7.30;3.83;;;;;;;7.28;100.00;102150.75;4978069;28;20238;-52
2021/12/19 00:48:06;;;;;;;6.50;2.97;;;;;;;7.23;100.00;102143.59;4979496;28;20234;-54
2021/12/19 00:50:35;;;;;;;5.93;3.70;;;;;;;7.29;100.00;102146.41;4984824;28;20284;-50
2021/12/19 00:53:01;;;;;;;5.13;3.70;;;;;;;7.28;100.00;102149.88;4978033;28;20276;-53
2021/12/19 00:55:28;;;;;;;5.07;3.90;;;;;;;7.27;100.00;102142.88;4987495;28;20250;-53
2021/12/19 00:57:55;;;;;;;4.40;4.00;;;;;;;7.26;100.00;102143.69;4987000;28;20230;-52
2021/12/19 01:00:25;;;;;;;9.27;3.37;;;;;;;7.28;100.00;102140.31;4995445;28;20622;-52
2021/12/19 01:02:53;;;;;;;11.67;3.63;;;;;;;7.30;100.00;102137.75;4986427;28;20226;-54
2021/12/19 01:05:20;;;;;;;12.23;4.00;;;;;;;7.31;100.00;102134.31;4982298;28;20257;-49
2021/12/19 01:07:48;;;;;;;5.93;3.27;;;;;;;7.25;100.00;102134.97;4991806;28;20242;-54
2021/12/19 01:10:15;;;;;;;5.27;4.07;;;;;;;7.27;100.00;102142.88;4994366;28;20376;-52
2021/12/19 01:12:41;;;;;;;5.67;3.80;;;;;;;7.25;100.00;102139.31;4990561;28;20234;-56
2021/12/19 01:15:11;;;;;;;8.43;3.77;;;;;;;7.19;100.00;102132.13;4983176;28;20297;-54
2021/12/19 01:17:38;;;;;;;5.20;3.17;;;;;;;7.15;100.00;102128.53;4984360;28;20287;-52
2021/12/19 01:20:06;;;;;;;9.37;4.10;;;;;;;7.18;100.00;102120.81;4985720;28;20254;-53
2021/12/19 01:22:32;;;;;;;5.70;3.60;;;;;;;7.12;100.00;102112.75;4983664;28;20946;-55
2021/12/19 01:25:00;;;;;;;7.40;4.57;;;;;;;7.22;100.00;102113.09;4992878;28;20246;-59
2021/12/19 01:27:26;;;;;;;7.93;5.47;;;;;;;7.19;100.00;102106.00;4985949;28;20293;-52
2021/12/19 01:29:53;;;;;;;11.37;4.63;;;;;;;7.21;100.00;102111.31;4980122;28;20240;-55
2021/12/19 01:32:19;;;;;;;7.90;5.23;;;;;;;7.22;100.00;102100.91;4984061;28;20238;-54
2021/12/19 01:34:45;;;;;;;10.80;5.70;;;;;;;7.12;100.00;102091.84;4982554;28;20276;-54
2021/12/19 01:37:13;;;;;;;8.43;7.10;;;;;;;7.17;100.00;102090.31;4987536;28;20288;-54
2021/12/19 01:39:39;;;;;;;8.07;5.97;;;;;;;7.12;100.00;102096.19;4983117;28;20261;-55
2021/12/19 01:42:11;;;;;;;9.97;5.67;;;;;;;7.09;100.00;102090.84;4991485;28;20672;-54
2021/12/19 01:44:37;;;;;;;11.97;5.90;;;;;;;7.14;100.00;102090.19;4980033;28;20221;-59
2021/12/19 01:47:05;;;;;;;8.77;5.73;;;;;;;7.16;100.00;102088.53;4982748;28;20257;-54
2021/12/19 01:49:31;;;;;;;7.47;5.63;;;;;;;7.12;100.00;102091.84;4981247;28;20277;-53
2021/12/19 01:51:58;;;;;;;9.23;5.53;;;;;;;7.07;100.00;102088.22;4985469;28;20337;-54
2021/12/19 01:54:25;;;;;;;5.43;4.90;;;;;;;7.08;100.00;102073.41;4985894;28;20788;-53
2021/12/19 01:56:51;;;;;;;9.77;4.67;;;;;;;7.18;100.00;102067.69;4985702;28;20938;-55
2021/12/19 01:59:19;;;;;;;7.17;5.07;;;;;;;7.23;100.00;102067.84;4983973;28;20264;-54
2021/12/19 02:01:50;;;;;;;4.93;4.13;;;;;;;7.16;100.00;102072.88;4984624;28;20237;-56
2021/12/19 02:04:19;;;;;;;7.30;4.70;;;;;;;7.20;100.00;102059.91;4985241;28;20234;-52
2021/12/19 02:06:46;;;;;;;7.20;4.40;;;;;;;7.15;100.00;102049.28;4988981;28;20258;-53
2021/12/19 02:09:13;;;;;;;8.73;4.67;;;;;;;7.16;100.00;102045.88;4984880;28;20234;-53
2021/12/19 02:11:41;;;;;;;5.80;3.80;;;;;;;7.14;100.00;102030.13;4985592;28;20233;-57
2021/12/19 02:14:09;;;;;;;6.20;3.57;;;;;;;7.16;100.00;102036.31;4983155;28;20342;-54
2021/12/19 02:16:38;;;;;;;5.70;3.47;;;;;;;7.18;100.00;102037.22;4984799;28;20719;-54
2021/12/19 02:19:05;;;;;;;7.03;3.87;;;;;;;7.20;100.00;102037.28;4985003;28;20308;-53
2021/12/19 02:21:34;;;;;;;5.37;3.47;;;;;;;7.16;100.00;102041.53;4986972;28;20297;-53
2021/12/19 02:24:02;;;;;;;5.63;3.20;;;;;;;7.17;100.00;102038.06;4987472;28;20241;-54
2021/12/19 02:26:28;;;;;;;7.13;3.07;;;;;;;7.12;100.00;102034.41;4983078;28;20261;-52
2021/12/19 02:28:55;;;;;;;4.00;2.47;;;;;;;7.15;100.00;102044.06;4986167;28;20230;-53
2021/12/19 02:31:22;;;;;;;7.43;2.83;;;;;;;7.12;100.00;102051.78;4990214;28;20305;-54
2021/12/19 02:34:00;;;;;;;4.53;2.37;;;;;;;7.08;100.00;102063.84;4985037;28;20238;-55
2021/12/19 02:36:41;;;;;;;4.00;2.23;;;;;;;7.08;100.00;102056.03;4985176;28;20321;-54
2021/12/19 02:39:23;;;;;;;4.27;2.43;;;;;;;7.17;100.00;102048.53;4984273;28;20241;-53
2021/12/19 02:50:01;;;;;;;7.70;2.57;;;;;;;7.18;100.00;102024.16;4990366;28;20241;-56
2021/12/19 02:52:27;;;;;;;2.77;2.10;;;;;;;7.13;100.00;102024.88;5000535;28;20296;-54
2021/12/19 02:54:55;;;;;;;3.63;2.13;;;;;;;7.21;100.00;102022.50;4993934;28;20230;-51
2021/12/19 02:57:22;;;;;;;4.00;2.47;;;;;;;7.09;100.00;102023.88;4984435;28;20293;-52
2021/12/19 02:59:48;;;;;;;4.40;2.30;;;;;;;7.13;100.00;102038.81;4989446;28;20234;-52
2021/12/19 03:02:15;;;;;;;2.70;2.43;;;;;;;7.08;100.00;102032.53;4984543;28;20261;-55
2021/12/19 03:04:52;;;;;;;3.23;2.03;;;;;;;7.14;100.00;102011.84;4986114;28;20230;-54
2021/12/19 03:07:19;;;;;;;4.63;2.03;;;;;;;7.19;100.00;101998.94;4985595;28;20242;-53
2021/12/19 03:10:00;;;;;;;6.67;2.23;;;;;;;7.27;100.00;101986.16;4985833;28;20238;-55
2021/12/19 03:12:43;;;;;;;2.53;2.30;;;;;;;7.22;100.00;101977.25;4985527;28;20234;-53
2021/12/19 03:18:00;;;;;;;3.20;2.33;;;;;;;7.22;100.00;101992.94;4959486;28;20233;-55
2021/12/19 03:20:27;;;;;;;3.83;2.30;;;;;;;7.19;100.00;101988.47;4998847;28;20240;-52
2021/12/19 03:22:53;;;;;;;7.53;2.27;;;;;;;7.17;100.00;101987.56;4991237;28;20229;-55
2021/12/19 03:25:20;;;;;;;3.83;1.87;;;;;;;7.17;100.00;101988.44;4985550;28;20710;-54
2021/12/19 03:27:48;;;;;;;2.87;1.90;;;;;;;7.15;100.00;101976.16;4984838;28;20249;-54
2021/12/19 03:30:14;;;;;;;2.20;1.90;;;;;;;7.18;100.00;101981.50;4985651;28;20234;-55
2021/12/19 03:32:41;;;;;;;2.37;1.40;;;;;;;7.20;100.00;101973.72;4999089;28;21283;-57
2021/12/19 03:35:08;;;;;;;2.87;1.30;;;;;;;7.19;100.00;101980.66;4997029;28;21067;-57
2021/12/19 03:37:34;;;;;;;2.00;1.63;;;;;;;7.13;100.00;101983.97;4995782;28;20292;-54
2021/12/19 03:40:09;;;;;;;1.50;1.40;;;;;;;7.05;100.00;101977.56;4983242;28;20261;-55
2021/12/19 03:42:37;;;;;;;4.50;1.70;;;;;;;7.07;100.00;101983.75;4981152;28;20292;-52
2021/12/19 03:45:06;;;;;;;3.73;1.87;;;;;;;7.12;100.00;101984.78;4983466;28;20253;-54
2021/12/19 03:47:32;;;;;;;6.33;2.10;;;;;;;7.14;100.00;101964.84;4983852;28;20355;-52
2021/12/19 03:49:59;;;;;;;1.43;1.20;;;;;;;7.14;100.00;101962.22;4983641;28;20898;-53
2021/12/19 03:52:25;;;;;;;3.77;2.23;;;;;;;7.21;100.00;101975.50;4982341;28;20761;-52
2021/12/19 03:54:51;;;;;;;3.17;1.90;;;;;;;7.19;100.00;101972.81;4984530;28;20257;-52
2021/12/19 03:57:18;;;;;;;3.50;1.57;;;;;;;7.17;100.00;101970.16;4983947;28;20787;-51
2021/12/19 03:59:47;;;;;;;3.30;1.70;;;;;;;7.23;100.00;101958.13;4984926;28;20229;-51
2021/12/19 04:02:22;;;;;;;4.97;2.10;;;;;;;7.22;100.00;101977.25;4983679;28;20237;-52
2021/12/19 04:04:49;;;;;;;2.80;1.47;;;;;;;7.17;100.00;101978.00;4984348;28;20240;-54
2021/12/19 04:07:15;;;;;;;3.03;1.97;;;;;;;7.23;100.00;101968.56;4983263;28;20808;-54
2021/12/19 04:09:42;;;;;;;4.73;2.20;;;;;;;7.17;100.00;101969.28;4983687;28;20639;-52
2021/12/19 04:12:09;;;;;;;4.10;2.37;;;;;;;7.20;100.00;101971.13;4982434;28;20765;-52
2021/12/19 04:14:35;;;;;;;5.97;2.07;;;;;;;7.09;100.00;101960.28;4984790;28;20234;-56
2021/12/19 04:17:02;;;;;;;3.37;2.27;;;;;;;7.18;100.00;101971.94;4984242;28;20782;-53
2021/12/19 04:19:29;;;;;;;2.07;1.97;;;;;;;7.19;99.96;101957.13;4984901;28;20246;-53
2021/12/19 04:21:56;;;;;;;4.30;2.90;;;;;;;7.14;100.00;101957.00;4990594;28;20230;-53
2021/12/19 04:24:22;;;;;;;6.40;2.47;;;;;;;7.16;100.00;101967.53;4990085;28;20338;-51
2021/12/19 04:26:49;;;;;;;2.97;2.33;;;;;;;7.15;100.00;101964.00;4992019;28;20242;-51
2021/12/19 04:29:15;;;;;;;9.80;2.90;;;;;;;7.16;100.00;101963.19;4987036;28;20304;-53
2021/12/19 04:31:41;;;;;;;3.27;2.60;;;;;;;7.17;100.00;101959.72;4983934;28;20659;-52
2021/12/19 04:34:08;;;;;;;5.73;2.80;;;;;;;7.14;99.74;101969.19;4984111;28;20292;-52
2021/12/19 04:36:39;;;;;;;4.47;3.07;;;;;;;7.20;100.00;101965.91;4984925;28;20242;-53
2021/12/19 04:39:23;;;;;;;3.53;2.80;;;;;;;7.13;100.00;101968.28;4984026;28;20218;-53
2021/12/19 04:53:08;;;;;;;3.47;2.60;;;;;;;6.99;100.00;101953.91;4984837;28;20334;-54
2021/12/19 04:58:44;;;;;;;4.63;2.47;;;;;;;6.96;100.00;101955.53;4975230;28;20230;-53
2021/12/19 05:01:20;;;;;;;3.93;2.87;;;;;;;7.06;100.00;101950.66;4980387;28;20229;-53
2021/12/19 05:03:51;;;;;;;4.97;2.77;;;;;;;7.02;100.00;101948.78;4982661;28;20229;-53
2021/12/19 05:06:33;;;;;;;5.50;3.43;;;;;;;6.94;100.00;101934.56;4976813;28;20240;-52
2021/12/19 05:14:37;;;;;;;3.80;3.13;;;;;;;6.93;100.00;101949.34;4977667;28;20229;-52
2021/12/19 05:17:07;;;;;;;7.37;3.00;;;;;;;6.97;100.00;101942.50;4983487;28;20280;-53
2021/12/19 05:19:45;;;;;;;4.33;2.90;;;;;;;6.96;100.00;101940.75;4983326;28;20236;-54
2021/12/19 05:22:11;;;;;;;4.47;2.90;;;;;;;6.93;100.00;101927.56;4980373;28;20229;-54
2021/12/19 05:24:49;;;;;;;4.90;3.37;;;;;;;6.88;100.00;101934.34;4983400;28;20253;-52
2021/12/19 05:27:16;;;;;;;4.17;2.50;;;;;;;6.80;100.00;101918.44;4981836;28;20233;-55
2021/12/19 05:29:42;;;;;;;9.53;3.30;;;;;;;6.84;100.00;101922.03;4982567;28;20233;-52
2021/12/19 05:32:09;;;;;;;5.50;3.17;;;;;;;6.85;100.00;101922.09;4981387;28;20304;-53
2021/12/19 05:34:36;;;;;;;7.50;2.67;;;;;;;6.85;100.00;101918.63;4984234;28;20292;-52
2021/12/19 05:45:20;;;;;;;3.77;2.47;;;;;;;6.83;100.00;101929.00;4984977;28;20267;-54
2021/12/19 05:47:48;;;;;;;4.60;2.97;;;;;;;6.82;100.00;101928.94;4985172;28;20707;-52
2021/12/19 05:50:16;;;;;;;5.20;3.00;;;;;;;6.93;100.00;101932.81;4985874;28;20782;-56
2021/12/19 05:52:42;;;;;;;4.53;2.57;;;;;;;6.82;100.00;101928.94;4985408;28;20809;-53
2021/12/19 05:55:10;;;;;;;5.67;3.57;;;;;;;6.82;100.00;101918.50;4988206;28;20242;-53
2021/12/19 05:57:37;;;;;;;5.87;3.00;;;;;;;6.87;100.00;101919.53;4985818;28;20285;-51
2021/12/19 06:00:05;;;;;;;6.67;2.83;;;;;;;6.84;100.00;101922.91;4984617;28;20277;-55
2021/12/19 06:02:31;;;;;;;4.43;3.20;;;;;;;6.86;100.00;101925.59;4987771;28;20269;-55
2021/12/19 06:04:58;;;;;;;3.57;2.57;;;;;;;6.87;100.00;101928.25;4985560;28;20251;-53
2021/12/19 06:07:24;;;;;;;6.87;3.23;;;;;;;6.79;100.00;101921.91;4980848;28;20379;-53
2021/12/19 06:09:50;;;;;;;6.83;3.20;;;;;;;6.76;100.00;101916.56;4981351;28;20836;-54
2021/12/19 06:12:18;;;;;;;5.83;3.40;;;;;;;6.66;100.00;101907.53;4985345;28;20234;-53
2021/12/19 06:14:45;;;;;;;8.37;2.70;;;;;;;6.76;100.00;101913.06;4986643;28;20234;-62
2021/12/19 06:17:11;;;;;;;6.23;2.63;;;;;;;6.72;100.00;101911.22;4986107;28;20241;-54
2021/12/19 06:19:39;;;;;;;8.93;2.17;;;;;;;6.66;100.00;101901.44;4986659;28;20230;-52
2021/12/19 06:22:07;;;;;;;4.77;2.80;;;;;;;6.59;100.00;101900.34;4985801;28;20284;-53
2021/12/19 06:24:33;;;;;;;5.77;2.70;;;;;;;6.63;100.00;101904.84;4987424;28;20281;-54
2021/12/19 06:27:00;;;;;;;5.50;2.20;;;;;;;6.61;100.00;101897.78;5005261;22;20237;-55
2021/12/19 06:29:28;;;;;;;3.30;2.70;;;;;;;6.66;100.00;101896.22;5005039;28;20303;-57
2021/12/19 06:31:54;;;;;;;7.20;2.57;;;;;;;6.72;100.00;101886.00;4992836;28;20261;-56
2021/12/19 06:34:21;;;;;;;4.13;3.20;;;;;;;6.75;100.00;101890.44;5002469;28;20253;-56
2021/12/19 06:36:47;;;;;;;5.40;3.07;;;;;;;6.78;100.00;101882.72;4998656;28;20264;-56
2021/12/19 06:39:14;;;;;;;11.20;2.67;;;;;;;6.76;100.00;101889.59;5016512;28;20288;-57
2021/12/19 06:41:40;;;;;;;8.70;2.80;;;;;;;6.71;100.00;101888.56;5008106;28;20295;-55
2021/12/19 06:44:07;;;;;;;3.80;2.07;;;;;;;6.68;100.00;101879.78;5012688;28;20780;-57
2021/12/19 06:46:35;;;;;;;4.67;1.73;;;;;;;6.73;100.00;101871.22;5019308;28;20317;-56
2021/12/19 06:49:01;;;;;;;4.47;2.93;;;;;;;6.77;99.97;101867.88;5021198;28;20263;-56
2021/12/19 06:51:27;;;;;;;2.53;1.67;;;;;;;6.72;100.00;101872.06;5008627;28;20755;-57
2021/12/19 06:53:54;;;;;;;3.87;1.87;;;;;;;6.78;99.97;101877.50;5019047;28;20587;-57
2021/12/19 06:56:20;;;;;;;3.57;1.50;;;;;;;6.76;99.66;101881.75;5020465;28;20823;-56
2021/12/19 06:58:46;;;;;;;1.87;1.60;;;;;;;6.81;100.00;101874.94;5021235;28;20345;-57
2021/12/19 07:01:13;;;;;;;5.70;2.13;;;;;;;6.65;100.00;101877.06;5011676;28;20257;-57
2021/12/19 07:03:40;;;;;;;2.93;1.83;;;;;;;6.73;100.00;101877.31;5008219;28;20896;-56
2021/12/19 07:06:07;;;;;;;3.60;1.80;;;;;;;6.67;100.00;101874.53;5010877;28;20264;-55
2021/12/19 07:08:33;;;;;;;3.23;1.87;;;;;;;6.75;100.00;101864.34;5020166;28;20852;-57
2021/12/19 07:10:59;;;;;;;2.67;1.67;;;;;;;6.68;100.00;101871.94;5023425;28;20233;-57
2021/12/19 07:13:26;;;;;;;5.10;1.83;;;;;;;6.77;100.00;101878.31;5025316;28;20259;-56
2021/12/19 07:15:55;;;;;;;5.20;2.23;;;;;;;6.69;100.00;101871.09;5028825;28;20228;-56
2021/12/19 07:18:22;;;;;;;2.47;1.73;;;;;;;6.74;100.00;101867.75;5020859;28;20283;-56
2021/12/19 07:20:50;;;;;;;4.37;1.87;;;;;;;6.64;100.00;101867.47;5004675;28;20820;-56
2021/12/19 07:23:19;;;;;;;5.63;1.87;;;;;;;6.72;100.00;101859.91;5017465;28;20259;-57
2021/12/19 07:25:45;;;;;;;8.43;2.77;;;;;;;6.60;100.00;101855.16;5025153;28;20286;-55
2021/12/19 07:28:12;;;;;;;5.67;2.60;;;;;;;6.61;100.00;101851.72;5019532;28;20257;-56
2021/12/19 07:30:40;;;;;;;6.50;2.53;;;;;;;6.55;100.00;101854.09;5004336;28;20307;-57
2021/12/19 07:33:08;;;;;;;2.87;2.07;;;;;;;6.52;100.00;101856.63;5020006;28;20239;-56
2021/12/19 07:35:37;;;;;;;3.03;2.13;;;;;;;6.46;100.00;101853.81;5024776;28;20772;-57
2021/12/19 07:38:08;;;;;;;2.93;1.73;;;;;;;6.53;100.00;101842.75;5023047;28;20725;-54
2021/12/19 07:40:36;;;;;;;4.70;2.27;;;;;;;6.51;100.00;101839.19;5017674;28;20761;-57
2021/12/19 07:43:03;;;;;;;2.60;1.50;;;;;;;6.46;100.00;101846.00;5010971;28;20238;-56
2021/12/19 07:45:30;;;;;;;4.47;1.67;;;;;;;6.48;100.00;101830.38;5018236;28;20244;-55
2021/12/19 07:47:56;;;;;;;4.60;1.33;;;;;;;6.42;100.00;101841.47;5024917;28;20240;-57
2021/12/19 07:50:23;;;;;;;4.00;1.10;;;;;;;6.38;100.00;101848.31;5021218;28;20287;-57
2021/12/19 07:52:49;;;;;;;2.20;1.10;;;;;;;6.35;100.00;101836.91;5020225;28;20249;-57
2021/12/19 07:55:17;;;;;;;2.33;0.77;;;;;;;6.26;100.00;101831.38;5003008;28;20498;-56
2021/12/19 07:57:43;;;;;;;0.77;0.77;;;;;;;6.31;100.00;101828.09;5016753;28;20294;-57
2021/12/19 08:00:11;;;;;;;1.37;1.20;;;;;;;6.38;100.00;101834.41;5003763;28;20245;-55
2021/12/19 08:02:38;;;;;;;3.40;0.83;;;;;;;6.31;100.00;101815.03;5003620;28;20256;-57
2021/12/19 08:05:04;;;;;;;1.20;1.10;;;;;;;6.43;100.00;101822.41;5027539;28;20275;-55
2021/12/19 08:07:31;;;;;;;1.73;1.00;;;;;;;6.39;100.00;101828.38;5013498;28;20607;-56
2021/12/19 08:10:01;;;;;;;1.23;0.87;;;;;;;6.30;100.00;101825.44;5016023;28;20367;-57
2021/12/19 08:12:28;;;;;;;0.83;0.83;;;;;;;6.17;100.00;101819.78;5015753;28;20232;-56
2021/12/19 08:14:54;;;;;;;1.90;0.87;;;;;;;6.29;100.00;101810.63;5013835;28;20315;-56
2021/12/19 08:17:22;;;;;;;2.30;1.23;;;;;;;6.29;100.00;101805.41;5019290;28;20260;-55
2021/12/19 08:19:48;;;;;;;1.70;0.70;;;;;;;6.30;100.00;101807.19;5021750;28;20252;-55
2021/12/19 08:22:15;;;;;;;1.70;1.07;;;;;;;6.26;100.00;101800.09;5023984;28;20716;-56
2021/12/19 08:24:42;;;;;;;1.23;1.07;;;;;;;6.24;100.00;101794.81;5032846;28;20232;-56
2021/12/19 08:27:08;;;;;;;1.50;1.20;;;;;;;6.22;100.00;101791.28;5018281;28;20245;-56
2021/12/19 08:29:36;;;;;;;1.83;0.90;;;;;;;6.38;100.00;101803.09;5020413;28;20310;-56
2021/12/19 08:32:02;;;;;;;2.17;0.90;;;;;;;6.29;100.00;101790.66;5023155;28;20248;-56
2021/12/19 08:34:29;;;;;;;3.07;0.80;;;;;;;6.24;100.00;101780.88;5024285;28;20511;-55
2021/12/19 08:36:55;;;;;;;1.53;0.97;;;;;;;6.25;100.00;101777.44;5017652;28;20229;-56
2021/12/19 08:39:21;;;;;;;1.57;1.17;;;;;;;6.27;100.00;101791.41;5022066;28;20264;-55
2021/12/19 08:41:48;;;;;;;4.13;1.10;;;;;;;6.27;100.00;101786.22;5025161;28;20232;-56
2021/12/19 08:44:14;;;;;;;1.90;1.80;;;;;;;6.13;100.00;101784.03;5023041;28;20318;-56
2021/12/19 08:46:42;;;;;;;1.13;1.10;;;;;;;6.10;100.00;101799.56;5018287;28;20271;-55
2021/12/19 08:49:09;;;;;;;1.83;1.67;;;;;;;6.22;100.00;101794.78;5018918;28;20236;-57
2021/12/19 08:51:37;;;;;;;3.47;0.90;;;;;;;6.18;100.00;101782.47;5006094;28;20275;-56
2021/12/19 08:54:04;;;;;;;2.93;1.53;;;;;;;6.25;100.00;101780.03;5007103;28;20252;-55
2021/12/19 08:56:31;;;;;;;1.50;0.73;;;;;;;6.21;100.00;101790.41;5006328;28;20233;-56
2021/12/19 08:58:59;;;;;;;1.10;0.90;;;;;;;6.19;100.00;101786.84;5003639;28;20257;-56
2021/12/19 09:01:26;;;;;;;1.90;1.30;;;;;;;6.19;100.00;101783.34;5003519;28;20264;-56
2021/12/19 09:03:53;;;;;;;0.70;0.70;;;;;;;6.12;100.00;101782.25;5016189;28;20263;-56
2021/12/19 09:06:20;;;;;;;2.57;0.97;;;;;;;6.16;100.00;101784.13;5021606;28;20236;-56
2021/12/19 09:08:46;;;;;;;4.57;0.77;;;;;;;6.19;100.00;101778.13;5016690;28;20298;-56
2021/12/19 09:11:13;;;;;;;1.00;0.90;;;;;;;6.20;100.00;101777.28;5030062;28;20228;-56
2021/12/19 09:13:39;;;;;;;1.30;1.00;;;;;;;6.15;100.00;101777.16;5012257;28;20237;-57
2021/12/19 09:16:06;;;;;;;1.43;0.97;;;;;;;6.22;100.00;101771.31;5018789;28;20737;-57
2021/12/19 09:18:32;;;;;;;0.97;0.97;;;;;;;6.16;100.00;101768.47;5015040;28;20240;-55
2021/12/19 09:21:00;;;;;;;1.13;1.03;;;;;;;6.08;100.00;101769.94;5012680;28;20232;-55
2021/12/19 09:23:27;;;;;;;3.03;1.10;;;;;;;6.11;100.00;101767.47;5021227;28;20291;-56
2021/12/19 09:25:53;;;;;;;1.87;1.67;;;;;;;6.05;100.00;101759.41;5019225;28;20249;-57
2021/12/19 09:28:20;;;;;;;1.97;0.97;;;;;;;6.14;100.00;101758.81;5026414;28;20294;-56
2021/12/19 09:30:46;;;;;;;1.10;0.97;;;;;;;6.13;100.00;101757.94;5022699;28;20340;-56
2021/12/19 09:33:13;;;;;;;2.53;1.17;;;;;;;6.14;100.00;101757.13;5013836;28;20267;-55
2021/12/19 09:35:39;;;;;;;2.57;1.33;;;;;;;6.09;100.00;101745.66;5024808;28;20254;-56
2021/12/19 09:38:07;;;;;;;1.97;1.20;;;;;;;6.09;100.00;101748.25;5020469;28;20264;-56
2021/12/19 09:40:37;;;;;;;1.83;1.20;;;;;;;6.05;100.00;101749.00;5019641;28;20413;-55
2021/12/19 09:43:05;;;;;;;1.87;1.17;;;;;;;6.03;100.00;101749.75;5017938;28;20236;-55
2021/12/19 09:45:33;;;;;;;2.43;1.17;;;;;;;6.05;100.00;101743.78;5017185;28;20312;-56
2021/12/19 09:48:00;;;;;;;1.53;1.07;;;;;;;6.15;100.00;101751.06;5020847;28;20248;-57
2021/12/19 09:50:26;;;;;;;1.93;0.93;;;;;;;6.10;100.00;101750.00;5021661;28;20256;-57
2021/12/19 09:52:53;;;;;;;1.67;1.00;;;;;;;5.95;100.00;101737.34;5004325;28;20233;-56
2021/12/19 09:55:21;;;;;;;3.77;2.00;;;;;;;6.03;100.00;101744.56;5019965;28;20236;-56
2021/12/19 09:57:48;;;;;;;3.67;1.33;;;;;;;6.13;100.00;101724.06;5012309;28;20288;-56
2021/12/19 10:00:16;;;;;;;0.90;0.70;;;;;;;6.02;100.00;101733.25;5017905;28;20225;-56
2021/12/19 10:02:42;;;;;;;2.30;1.10;;;;;;;6.09;100.00;101723.91;5016944;28;20249;-55
2021/12/19 10:05:18;;;;;;;4.03;1.20;;;;;;;6.02;100.00;101721.94;5014030;28;20236;-57
2021/12/19 10:07:50;;;;;;;1.97;1.10;;;;;;;5.93;100.00;101712.97;5022447;28;20279;-56
2021/12/19 10:10:24;;;;;;;4.47;1.17;;;;;;;5.96;100.00;101706.97;5021397;28;20255;-54
2021/12/19 10:12:54;;;;;;;2.17;0.90;;;;;;;6.03;100.00;101701.13;5021177;28;20744;-56
2021/12/19 10:15:27;;;;;;;3.27;1.37;;;;;;;6.07;100.00;101691.69;5021472;28;20263;-56
2021/12/19 10:18:00;;;;;;;1.13;1.03;;;;;;;6.03;100.00;101698.50;5022090;28;20261;-57
2021/12/19 10:20:26;;;;;;;1.23;1.10;;;;;;;6.02;100.00;101688.03;5019101;28;20243;-58
2021/12/19 10:22:53;;;;;;;0.80;0.63;;;;;;;6.04;100.00;101689.88;5023869;28;20275;-57
2021/12/19 10:25:21;;;;;;;0.97;0.73;;;;;;;6.02;100.00;101688.94;5019335;28;20383;-57
2021/12/19 10:27:49;;;;;;;1.20;1.10;;;;;;;6.04;100.00;101684.66;5025216;28;20232;-57
2021/12/19 10:30:22;;;;;;;2.50;1.23;;;;;;;6.09;100.00;101677.88;5020210;28;20228;-58
2021/12/19 10:32:56;;;;;;;1.30;1.20;;;;;;;6.10;100.00;101678.75;5020222;28;20253;-58
2021/12/19 10:35:26;;;;;;;2.83;1.20;;;;;;;6.00;100.00;101677.56;5012926;28;20244;-57
2021/12/19 10:37:53;;;;;;;1.07;1.00;;;;;;;6.03;100.00;101668.94;5014651;28;20237;-58
2021/12/19 10:40:20;;;;;;;4.50;1.10;;;;;;;6.05;100.00;101659.47;5019326;28;20276;-57
2021/12/19 10:42:48;;;;;;;2.03;1.27;;;;;;;6.08;100.00;101663.06;5011840;28;20249;-58
2021/12/19 10:45:33;;;;;;;2.50;1.30;;;;;;;5.98;100.00;101671.41;5004577;28;20228;-58
2021/12/19 10:48:13;;;;;;;3.10;1.03;;;;;;;5.98;100.00;101668.81;5015468;28;20249;-57
2021/12/19 10:50:47;;;;;;;5.03;1.37;;;;;;;6.03;100.00;101669.84;5015742;28;20252;-57
2021/12/19 10:53:15;;;;;;;1.97;1.20;;;;;;;6.08;100.00;101668.28;5016688;28;20252;-58
2021/12/19 10:55:42;;;;;;;4.40;1.40;;;;;;;6.10;100.00;101656.16;5014276;28;20234;-58
2021/12/19 10:58:25;;;;;;;3.30;1.43;;;;;;;6.16;100.00;101663.31;5015951;28;20290;-58
2021/12/19 11:00:56;;;;;;;1.33;1.20;;;;;;;6.10;100.00;101658.75;5022494;28;20234;-58
2021/12/19 11:03:54;;;;;;;3.60;1.40;;;;;;;6.02;100.00;101659.38;5021017;28;20646;-58
2021/12/19 11:06:33;;;;;;;2.17;1.50;;;;;;;6.01;100.00;101668.91;4974091;28;20228;-56
2021/12/19 11:09:01;;;;;;;5.17;1.83;;;;;;;6.10;100.00;101656.16;5011247;28;20240;-58
2021/12/19 11:11:48;;;;;;;1.67;1.37;;;;;;;5.97;100.00;101648.81;5007504;28;20714;-57
2021/12/19 11:14:16;;;;;;;1.30;1.20;;;;;;;6.09;100.00;101648.31;5011265;28;20257;-59
2021/12/19 11:16:43;;;;;;;2.63;1.40;;;;;;;6.09;100.00;101643.97;5022867;28;20260;-57
2021/12/19 11:19:11;;;;;;;2.17;1.43;;;;;;;6.05;100.00;101631.69;5016897;28;20257;-56
2021/12/19 11:21:38;;;;;;;3.67;1.33;;;;;;;6.02;100.00;101623.75;5011785;28;20686;-56
2021/12/19 11:24:07;;;;;;;3.50;1.63;;;;;;;6.09;100.00;101610.09;5025392;28;21065;-57
2021/12/19 11:26:33;;;;;;;4.50;1.37;;;;;;;6.04;100.00;101593.44;5015436;28;20263;-58
2021/12/19 11:29:00;;;;;;;1.70;1.10;;;;;;;5.99;100.00;101594.97;5021768;28;20240;-57
2021/12/19 11:31:31;;;;;;;7.17;2.00;;;;;;;5.93;100.00;101582.66;5036978;28;20309;-58
2021/12/19 11:34:21;;;;;;;6.90;1.63;;;;;;;6.05;100.00;101576.94;5015965;28;20236;-57
2021/12/19 11:36:51;;;;;;;3.70;1.53;;;;;;;6.03;100.00;101573.38;5017315;28;20725;-58
2021/12/19 11:39:17;;;;;;;3.03;1.30;;;;;;;6.06;100.00;101563.06;5010407;28;20381;-58
2021/12/19 11:42:07;;;;;;;4.10;1.77;;;;;;;6.02;100.00;101561.19;5006533;28;20232;-58
2021/12/19 11:44:36;;;;;;;3.17;1.70;;;;;;;6.02;100.00;101558.59;5010105;28;20815;-57
2021/12/19 11:47:07;;;;;;;6.57;2.33;;;;;;;6.09;100.00;101557.94;5004072;28;20249;-58
2021/12/19 11:49:35;;;;;;;2.57;1.47;;;;;;;5.99;100.00;101566.31;5016374;28;20646;-58
2021/12/19 11:52:25;;;;;;;9.17;2.43;;;;;;;6.01;100.00;101554.22;5019705;28;20232;-58
2021/12/19 11:55:19;;;;;;;6.07;1.13;;;;;;;6.01;100.00;101549.00;5021563;28;20225;-58
2021/12/19 11:58:20;;;;;;;4.40;1.93;;;;;;;6.02;100.00;101544.69;5003054;28;20233;-58
2021/12/19 12:00:50;;;;;;;6.40;2.07;;;;;;;5.98;100.00;101548.91;5018837;28;20236;-57
2021/12/19 12:03:28;;;;;;;2.70;1.80;;;;;;;6.02;100.00;101555.09;5018608;28;20236;-58
2021/12/19 12:06:26;;;;;;;6.60;1.57;;;;;;;6.06;100.00;101542.19;5019368;28;20282;-60
2021/12/19 12:09:22;;;;;;;3.40;1.47;;;;;;;6.03;100.00;101542.09;5019206;28;20235;-57
2021/12/19 12:12:13;;;;;;;4.03;1.70;;;;;;;6.02;100.00;101536.84;5009275;28;20228;-58
2021/12/19 12:14:42;;;;;;;3.00;1.67;;;;;;;6.07;100.00;101532.66;5017427;28;20331;-57